sensor_id;sensor_type;location;lat;lon;timestamp;P1;durP1;ratioP1;P2;durP2;ratioP2
47960;SDS011;33721;48.852;9.936;2022-09-06T00:00:09;13.25;;;6.80;;
47960;SDS011;33721;48.852;9.936;2022-09-06T00:02:36;13.35;;;7.43;;
47960;SDS011;33721;48.852;9.936;2022-09-06T00:05:03;16.13;;;7.28;;
47960;SDS011;33721;48.852;9.936;2022-09-06T00:07:29;17.65;;;7.38;;
47960;SDS011;33721;48.852;9.936;2022-09-06T00:09:55;16.88;;;6.88;;
47960;SDS011;33721;48.852;9.936;2022-09-06T00:12:21;14.38;;;7.30;;
47960;SDS011;33721;48.852;9.936;2022-09-06T00:14:48;15.70;;;7.30;;
47960;SDS011;33721;48.852;9.936;2022-09-06T00:17:14;13.82;;;7.00;;
47960;SDS011;33721;48.852;9.936;2022-09-06T00:19:40;16.77;;;7.40;;
47960;SDS011;33721;48.852;9.936;2022-09-06T00:22:06;12.93;;;7.43;;
47960;SDS011;33721;48.852;9.936;2022-09-06T00:24:31;11.70;;;7.20;;
47960;SDS011;33721;48.852;9.936;2022-09-06T00:26:57;14.55;;;7.40;;
47960;SDS011;33721;48.852;9.936;2022-09-06T00:29:23;12.38;;;7.55;;
47960;SDS011;33721;48.852;9.936;2022-09-06T00:31:48;14.73;;;7.00;;
47960;SDS011;33721;48.852;9.936;2022-09-06T00:34:14;10.90;;;7.15;;
47960;SDS011;33721;48.852;9.936;2022-09-06T00:36:40;15.00;;;7.35;;
47960;SDS011;33721;48.852;9.936;2022-09-06T00:39:05;17.75;;;7.57;;
47960;SDS011;33721;48.852;9.936;2022-09-06T00:41:31;13.27;;;7.38;;
47960;SDS011;33721;48.852;9.936;2022-09-06T00:43:57;15.48;;;7.20;;
47960;SDS011;33721;48.852;9.936;2022-09-06T00:46:23;13.90;;;7.35;;
47960;SDS011;33721;48.852;9.936;2022-09-06T00:48:53;18.52;;;7.82;;
47960;SDS011;33721;48.852;9.936;2022-09-06T00:51:24;17.48;;;7.82;;
47960;SDS011;33721;48.852;9.936;2022-09-06T00:53:52;15.70;;;7.35;;
47960;SDS011;33721;48.852;9.936;2022-09-06T00:56:19;15.02;;;7.97;;
47960;SDS011;33721;48.852;9.936;2022-09-06T00:58:45;13.32;;;7.60;;
47960;SDS011;33721;48.852;9.936;2022-09-06T01:01:11;18.17;;;7.70;;
47960;SDS011;33721;48.852;9.936;2022-09-06T01:03:37;15.30;;;8.40;;
47960;SDS011;33721;48.852;9.936;2022-09-06T01:14:51;17.33;;;8.77;;
47960;SDS011;33721;48.852;9.936;2022-09-06T01:31:03;11.52;;;6.65;;
47960;SDS011;33721;48.852;9.936;2022-09-06T01:33:42;23.65;;;7.93;;
47960;SDS011;33721;48.852;9.936;2022-09-06T01:36:12;20.83;;;7.85;;
47960;SDS011;33721;48.852;9.936;2022-09-06T01:38:42;19.52;;;7.85;;
47960;SDS011;33721;48.852;9.936;2022-09-06T01:41:08;14.27;;;7.78;;
47960;SDS011;33721;48.852;9.936;2022-09-06T01:43:35;19.52;;;8.18;;
47960;SDS011;33721;48.852;9.936;2022-09-06T01:52:07;13.80;;;7.95;;
47960;SDS011;33721;48.852;9.936;2022-09-06T01:54:47;14.73;;;7.00;;
47960;SDS011;33721;48.852;9.936;2022-09-06T01:57:20;14.02;;;7.57;;
47960;SDS011;33721;48.852;9.936;2022-09-06T02:02:26;21.60;;;8.68;;
47960;SDS011;33721;48.852;9.936;2022-09-06T02:05:15;17.83;;;8.50;;
47960;SDS011;33721;48.852;9.936;2022-09-06T02:11:12;21.52;;;9.32;;
47960;SDS011;33721;48.852;9.936;2022-09-06T02:13:49;20.90;;;9.00;;
47960;SDS011;33721;48.852;9.936;2022-09-06T02:16:20;18.77;;;9.30;;
47960;SDS011;33721;48.852;9.936;2022-09-06T02:21:55;23.85;;;9.50;;
47960;SDS011;33721;48.852;9.936;2022-09-06T02:24:24;19.35;;;9.05;;
47960;SDS011;33721;48.852;9.936;2022-09-06T02:26:53;16.75;;;8.80;;
47960;SDS011;33721;48.852;9.936;2022-09-06T02:29:19;19.02;;;8.18;;
47960;SDS011;33721;48.852;9.936;2022-09-06T02:31:58;14.27;;;8.05;;
47960;SDS011;33721;48.852;9.936;2022-09-06T02:37:13;17.02;;;9.30;;
47960;SDS011;33721;48.852;9.936;2022-09-06T02:39:40;24.00;;;9.43;;
47960;SDS011;33721;48.852;9.936;2022-09-06T02:42:06;21.60;;;10.45;;
47960;SDS011;33721;48.852;9.936;2022-09-06T02:44:34;23.10;;;10.18;;
47960;SDS011;33721;48.852;9.936;2022-09-06T02:46:59;24.10;;;9.63;;
47960;SDS011;33721;48.852;9.936;2022-09-06T02:49:27;19.45;;;9.15;;
47960;SDS011;33721;48.852;9.936;2022-09-06T02:51:54;17.75;;;9.18;;
47960;SDS011;33721;48.852;9.936;2022-09-06T02:54:20;18.08;;;8.75;;
47960;SDS011;33721;48.852;9.936;2022-09-06T02:56:46;21.08;;;10.18;;
47960;SDS011;33721;48.852;9.936;2022-09-06T02:59:12;20.73;;;10.45;;
47960;SDS011;33721;48.852;9.936;2022-09-06T03:01:38;23.33;;;10.43;;
47960;SDS011;33721;48.852;9.936;2022-09-06T03:04:03;16.90;;;9.10;;
47960;SDS011;33721;48.852;9.936;2022-09-06T03:06:29;18.55;;;9.88;;
47960;SDS011;33721;48.852;9.936;2022-09-06T03:08:55;19.40;;;8.98;;
47960;SDS011;33721;48.852;9.936;2022-09-06T03:11:21;17.55;;;8.60;;
47960;SDS011;33721;48.852;9.936;2022-09-06T03:13:46;22.02;;;8.40;;
47960;SDS011;33721;48.852;9.936;2022-09-06T03:16:12;20.38;;;9.80;;
47960;SDS011;33721;48.852;9.936;2022-09-06T03:18:38;17.23;;;9.23;;
47960;SDS011;33721;48.852;9.936;2022-09-06T03:21:03;26.92;;;10.40;;
47960;SDS011;33721;48.852;9.936;2022-09-06T03:23:29;15.07;;;8.23;;
47960;SDS011;33721;48.852;9.936;2022-09-06T03:25:55;12.90;;;7.93;;
47960;SDS011;33721;48.852;9.936;2022-09-06T03:28:21;14.27;;;8.23;;
47960;SDS011;33721;48.852;9.936;2022-09-06T03:30:48;15.20;;;7.95;;
47960;SDS011;33721;48.852;9.936;2022-09-06T03:33:15;16.52;;;8.45;;
47960;SDS011;33721;48.852;9.936;2022-09-06T03:35:46;20.77;;;8.18;;
47960;SDS011;33721;48.852;9.936;2022-09-06T03:38:13;9.65;;;6.28;;
47960;SDS011;33721;48.852;9.936;2022-09-06T03:40:39;14.43;;;7.97;;
47960;SDS011;33721;48.852;9.936;2022-09-06T03:43:04;15.30;;;7.20;;
47960;SDS011;33721;48.852;9.936;2022-09-06T03:45:30;10.93;;;7.07;;
47960;SDS011;33721;48.852;9.936;2022-09-06T03:47:55;10.43;;;6.53;;
47960;SDS011;33721;48.852;9.936;2022-09-06T03:50:21;10.85;;;6.88;;
47960;SDS011;33721;48.852;9.936;2022-09-06T03:52:47;11.60;;;6.85;;
47960;SDS011;33721;48.852;9.936;2022-09-06T03:55:12;11.68;;;6.68;;
47960;SDS011;33721;48.852;9.936;2022-09-06T03:57:38;9.00;;;5.82;;
47960;SDS011;33721;48.852;9.936;2022-09-06T04:00:03;10.68;;;6.13;;
47960;SDS011;33721;48.852;9.936;2022-09-06T04:02:30;10.52;;;5.97;;
47960;SDS011;33721;48.852;9.936;2022-09-06T04:04:55;8.50;;;6.05;;
47960;SDS011;33721;48.852;9.936;2022-09-06T04:07:21;10.52;;;6.13;;
47960;SDS011;33721;48.852;9.936;2022-09-06T04:09:47;11.32;;;6.85;;
47960;SDS011;33721;48.852;9.936;2022-09-06T04:12:13;11.70;;;7.07;;
47960;SDS011;33721;48.852;9.936;2022-09-06T04:14:39;10.52;;;6.38;;
47960;SDS011;33721;48.852;9.936;2022-09-06T04:17:04;15.93;;;7.63;;
47960;SDS011;33721;48.852;9.936;2022-09-06T04:19:30;12.52;;;7.13;;
47960;SDS011;33721;48.852;9.936;2022-09-06T04:21:56;12.30;;;7.70;;
47960;SDS011;33721;48.852;9.936;2022-09-06T04:24:21;10.15;;;6.95;;
47960;SDS011;33721;48.852;9.936;2022-09-06T04:26:47;16.83;;;7.47;;
47960;SDS011;33721;48.852;9.936;2022-09-06T04:29:12;14.05;;;7.38;;
47960;SDS011;33721;48.852;9.936;2022-09-06T04:31:38;13.48;;;7.50;;
47960;SDS011;33721;48.852;9.936;2022-09-06T04:34:04;12.82;;;7.50;;
47960;SDS011;33721;48.852;9.936;2022-09-06T04:36:29;11.15;;;7.25;;
47960;SDS011;33721;48.852;9.936;2022-09-06T04:38:55;14.00;;;7.43;;
47960;SDS011;33721;48.852;9.936;2022-09-06T04:41:21;14.93;;;7.47;;
47960;SDS011;33721;48.852;9.936;2022-09-06T04:43:47;11.90;;;7.97;;
47960;SDS011;33721;48.852;9.936;2022-09-06T04:46:20;19.00;;;8.30;;
47960;SDS011;33721;48.852;9.936;2022-09-06T04:48:49;13.23;;;6.72;;
47960;SDS011;33721;48.852;9.936;2022-09-06T04:51:15;11.10;;;7.25;;
47960;SDS011;33721;48.852;9.936;2022-09-06T04:53:41;10.95;;;7.05;;
47960;SDS011;33721;48.852;9.936;2022-09-06T04:56:09;14.95;;;7.70;;
47960;SDS011;33721;48.852;9.936;2022-09-06T04:58:40;12.82;;;7.32;;
47960;SDS011;33721;48.852;9.936;2022-09-06T05:01:06;13.85;;;7.50;;
47960;SDS011;33721;48.852;9.936;2022-09-06T05:03:32;12.30;;;7.45;;
47960;SDS011;33721;48.852;9.936;2022-09-06T05:06:07;12.68;;;7.53;;
47960;SDS011;33721;48.852;9.936;2022-09-06T05:08:35;11.70;;;7.57;;
47960;SDS011;33721;48.852;9.936;2022-09-06T05:11:05;13.98;;;7.88;;
47960;SDS011;33721;48.852;9.936;2022-09-06T05:13:32;17.15;;;8.20;;
47960;SDS011;33721;48.852;9.936;2022-09-06T05:16:01;18.20;;;8.25;;
47960;SDS011;33721;48.852;9.936;2022-09-06T05:18:28;19.60;;;8.63;;
47960;SDS011;33721;48.852;9.936;2022-09-06T05:20:54;21.05;;;9.13;;
47960;SDS011;33721;48.852;9.936;2022-09-06T05:23:20;15.88;;;8.65;;
47960;SDS011;33721;48.852;9.936;2022-09-06T05:25:46;15.85;;;7.40;;
47960;SDS011;33721;48.852;9.936;2022-09-06T05:28:13;14.65;;;8.27;;
47960;SDS011;33721;48.852;9.936;2022-09-06T05:30:40;14.02;;;8.65;;
47960;SDS011;33721;48.852;9.936;2022-09-06T05:33:06;13.27;;;8.40;;
47960;SDS011;33721;48.852;9.936;2022-09-06T05:35:36;16.98;;;9.68;;
47960;SDS011;33721;48.852;9.936;2022-09-06T05:38:02;17.30;;;9.80;;
47960;SDS011;33721;48.852;9.936;2022-09-06T05:40:28;17.83;;;9.75;;
47960;SDS011;33721;48.852;9.936;2022-09-06T05:42:54;21.92;;;9.85;;
47960;SDS011;33721;48.852;9.936;2022-09-06T05:45:19;21.38;;;9.25;;
47960;SDS011;33721;48.852;9.936;2022-09-06T05:47:45;15.88;;;9.75;;
47960;SDS011;33721;48.852;9.936;2022-09-06T05:50:11;20.10;;;9.27;;
47960;SDS011;33721;48.852;9.936;2022-09-06T05:52:36;16.08;;;9.40;;
47960;SDS011;33721;48.852;9.936;2022-09-06T05:55:03;15.15;;;9.02;;
47960;SDS011;33721;48.852;9.936;2022-09-06T05:57:30;16.45;;;8.57;;
47960;SDS011;33721;48.852;9.936;2022-09-06T05:59:56;15.95;;;9.73;;
47960;SDS011;33721;48.852;9.936;2022-09-06T06:02:24;15.57;;;8.50;;
47960;SDS011;33721;48.852;9.936;2022-09-06T06:04:51;14.85;;;8.80;;
47960;SDS011;33721;48.852;9.936;2022-09-06T06:07:18;14.40;;;8.15;;
47960;SDS011;33721;48.852;9.936;2022-09-06T06:09:44;18.90;;;9.85;;
47960;SDS011;33721;48.852;9.936;2022-09-06T06:12:10;14.95;;;8.77;;
47960;SDS011;33721;48.852;9.936;2022-09-06T06:14:36;17.52;;;9.18;;
47960;SDS011;33721;48.852;9.936;2022-09-06T06:17:01;15.88;;;9.10;;
47960;SDS011;33721;48.852;9.936;2022-09-06T06:19:27;17.55;;;8.98;;
47960;SDS011;33721;48.852;9.936;2022-09-06T06:21:53;13.63;;;8.65;;
47960;SDS011;33721;48.852;9.936;2022-09-06T06:24:20;11.32;;;7.55;;
47960;SDS011;33721;48.852;9.936;2022-09-06T06:26:46;12.98;;;8.02;;
47960;SDS011;33721;48.852;9.936;2022-09-06T06:29:11;15.65;;;7.72;;
47960;SDS011;33721;48.852;9.936;2022-09-06T06:31:38;18.92;;;8.05;;
47960;SDS011;33721;48.852;9.936;2022-09-06T06:34:04;14.70;;;8.77;;
47960;SDS011;33721;48.852;9.936;2022-09-06T06:36:31;14.32;;;8.98;;
47960;SDS011;33721;48.852;9.936;2022-09-06T06:38:58;11.43;;;8.05;;
47960;SDS011;33721;48.852;9.936;2022-09-06T06:41:25;12.55;;;7.57;;
47960;SDS011;33721;48.852;9.936;2022-09-06T06:43:53;15.20;;;8.38;;
47960;SDS011;33721;48.852;9.936;2022-09-06T06:46:21;22.63;;;9.85;;
47960;SDS011;33721;48.852;9.936;2022-09-06T06:48:48;16.90;;;8.75;;
47960;SDS011;33721;48.852;9.936;2022-09-06T06:51:16;14.88;;;7.78;;
47960;SDS011;33721;48.852;9.936;2022-09-06T06:53:43;12.23;;;8.13;;
47960;SDS011;33721;48.852;9.936;2022-09-06T06:56:21;14.52;;;8.07;;
47960;SDS011;33721;48.852;9.936;2022-09-06T06:58:49;13.55;;;8.50;;
47960;SDS011;33721;48.852;9.936;2022-09-06T07:01:16;13.77;;;7.65;;
47960;SDS011;33721;48.852;9.936;2022-09-06T07:03:44;12.35;;;7.63;;
47960;SDS011;33721;48.852;9.936;2022-09-06T07:06:10;12.38;;;7.22;;
47960;SDS011;33721;48.852;9.936;2022-09-06T07:08:37;11.65;;;7.38;;
47960;SDS011;33721;48.852;9.936;2022-09-06T07:11:07;11.50;;;7.20;;
47960;SDS011;33721;48.852;9.936;2022-09-06T07:13:34;12.25;;;7.22;;
47960;SDS011;33721;48.852;9.936;2022-09-06T07:18:33;11.90;;;6.80;;
47960;SDS011;33721;48.852;9.936;2022-09-06T07:20:59;9.52;;;6.38;;
47960;SDS011;33721;48.852;9.936;2022-09-06T07:23:24;8.68;;;6.13;;
47960;SDS011;33721;48.852;9.936;2022-09-06T07:25:50;10.15;;;6.68;;
47960;SDS011;33721;48.852;9.936;2022-09-06T07:28:16;13.18;;;6.35;;
47960;SDS011;33721;48.852;9.936;2022-09-06T07:30:41;13.50;;;7.05;;
47960;SDS011;33721;48.852;9.936;2022-09-06T07:33:07;13.40;;;6.93;;
47960;SDS011;33721;48.852;9.936;2022-09-06T07:35:33;13.45;;;7.32;;
47960;SDS011;33721;48.852;9.936;2022-09-06T07:37:59;13.00;;;6.55;;
47960;SDS011;33721;48.852;9.936;2022-09-06T07:40:26;7.60;;;5.43;;
47960;SDS011;33721;48.852;9.936;2022-09-06T07:42:59;11.05;;;6.05;;
47960;SDS011;33721;48.852;9.936;2022-09-06T07:45:25;13.02;;;5.30;;
47960;SDS011;33721;48.852;9.936;2022-09-06T07:47:54;14.85;;;5.47;;
47960;SDS011;33721;48.852;9.936;2022-09-06T07:50:24;9.02;;;5.53;;
47960;SDS011;33721;48.852;9.936;2022-09-06T07:52:50;8.85;;;5.88;;
47960;SDS011;33721;48.852;9.936;2022-09-06T07:55:16;14.88;;;8.18;;
47960;SDS011;33721;48.852;9.936;2022-09-06T07:57:41;12.80;;;7.32;;
47960;SDS011;33721;48.852;9.936;2022-09-06T08:00:07;11.73;;;7.38;;
47960;SDS011;33721;48.852;9.936;2022-09-06T08:02:35;11.77;;;7.63;;
47960;SDS011;33721;48.852;9.936;2022-09-06T08:05:01;11.38;;;7.60;;
47960;SDS011;33721;48.852;9.936;2022-09-06T08:07:27;10.32;;;7.03;;
47960;SDS011;33721;48.852;9.936;2022-09-06T08:09:52;12.57;;;7.13;;
47960;SDS011;33721;48.852;9.936;2022-09-06T08:12:18;9.15;;;6.10;;
47960;SDS011;33721;48.852;9.936;2022-09-06T08:14:44;9.50;;;6.30;;
47960;SDS011;33721;48.852;9.936;2022-09-06T08:17:09;11.90;;;5.50;;
47960;SDS011;33721;48.852;9.936;2022-09-06T08:19:35;10.93;;;6.45;;
47960;SDS011;33721;48.852;9.936;2022-09-06T08:22:01;13.45;;;6.13;;
47960;SDS011;33721;48.852;9.936;2022-09-06T08:24:26;12.45;;;6.05;;
47960;SDS011;33721;48.852;9.936;2022-09-06T08:26:52;10.60;;;6.10;;
47960;SDS011;33721;48.852;9.936;2022-09-06T08:29:18;11.40;;;5.70;;
47960;SDS011;33721;48.852;9.936;2022-09-06T08:31:44;9.90;;;6.00;;
47960;SDS011;33721;48.852;9.936;2022-09-06T08:34:10;9.90;;;5.95;;
47960;SDS011;33721;48.852;9.936;2022-09-06T08:36:39;10.60;;;5.28;;
47960;SDS011;33721;48.852;9.936;2022-09-06T08:39:06;7.28;;;5.20;;
47960;SDS011;33721;48.852;9.936;2022-09-06T08:44:05;15.90;;;6.43;;
47960;SDS011;33721;48.852;9.936;2022-09-06T08:46:41;9.98;;;6.57;;
47960;SDS011;33721;48.852;9.936;2022-09-06T08:49:10;11.07;;;5.85;;
47960;SDS011;33721;48.852;9.936;2022-09-06T08:54:06;11.75;;;6.20;;
47960;SDS011;33721;48.852;9.936;2022-09-06T08:56:50;9.73;;;5.78;;
47960;SDS011;33721;48.852;9.936;2022-09-06T08:59:28;12.93;;;6.53;;
47960;SDS011;33721;48.852;9.936;2022-09-06T09:04:32;9.35;;;6.47;;
47960;SDS011;33721;48.852;9.936;2022-09-06T09:07:09;8.48;;;6.05;;
47960;SDS011;33721;48.852;9.936;2022-09-06T09:09:48;9.77;;;6.25;;
47960;SDS011;33721;48.852;9.936;2022-09-06T09:12:19;13.20;;;6.40;;
47960;SDS011;33721;48.852;9.936;2022-09-06T09:14:48;10.57;;;6.18;;
47960;SDS011;33721;48.852;9.936;2022-09-06T09:17:26;11.38;;;6.72;;
47960;SDS011;33721;48.852;9.936;2022-09-06T09:19:55;10.80;;;6.53;;
47960;SDS011;33721;48.852;9.936;2022-09-06T09:22:21;15.15;;;6.20;;
47960;SDS011;33721;48.852;9.936;2022-09-06T09:24:48;9.23;;;6.30;;
47960;SDS011;33721;48.852;9.936;2022-09-06T09:27:19;14.32;;;6.55;;
47960;SDS011;33721;48.852;9.936;2022-09-06T09:37:44;12.38;;;6.22;;
47960;SDS011;33721;48.852;9.936;2022-09-06T09:40:27;10.10;;;5.57;;
47960;SDS011;33721;48.852;9.936;2022-09-06T09:43:08;13.13;;;6.45;;
47960;SDS011;33721;48.852;9.936;2022-09-06T09:45:37;12.13;;;5.60;;
47960;SDS011;33721;48.852;9.936;2022-09-06T09:50:51;15.48;;;5.85;;
47960;SDS011;33721;48.852;9.936;2022-09-06T09:53:20;9.75;;;6.18;;
47960;SDS011;33721;48.852;9.936;2022-09-06T09:55:48;10.15;;;5.55;;
47960;SDS011;33721;48.852;9.936;2022-09-06T10:03:43;13.20;;;6.45;;
47960;SDS011;33721;48.852;9.936;2022-09-06T10:06:11;10.65;;;5.88;;
47960;SDS011;33721;48.852;9.936;2022-09-06T10:08:38;14.50;;;5.88;;
47960;SDS011;33721;48.852;9.936;2022-09-06T10:11:10;11.73;;;5.70;;
47960;SDS011;33721;48.852;9.936;2022-09-06T10:13:37;9.43;;;5.18;;
47960;SDS011;33721;48.852;9.936;2022-09-06T10:16:03;11.68;;;6.13;;
47960;SDS011;33721;48.852;9.936;2022-09-06T10:21:13;9.38;;;5.40;;
47960;SDS011;33721;48.852;9.936;2022-09-06T10:26:23;9.73;;;5.07;;
47960;SDS011;33721;48.852;9.936;2022-09-06T10:28:59;11.25;;;5.65;;
47960;SDS011;33721;48.852;9.936;2022-09-06T10:50:40;15.57;;;5.13;;
47960;SDS011;33721;48.852;9.936;2022-09-06T10:56:01;15.88;;;5.25;;
47960;SDS011;33721;48.852;9.936;2022-09-06T10:58:36;12.55;;;4.95;;
47960;SDS011;33721;48.852;9.936;2022-09-06T11:01:07;11.68;;;4.68;;
47960;SDS011;33721;48.852;9.936;2022-09-06T11:03:43;9.73;;;5.07;;
47960;SDS011;33721;48.852;9.936;2022-09-06T11:06:10;11.52;;;5.10;;
47960;SDS011;33721;48.852;9.936;2022-09-06T11:08:48;9.30;;;5.25;;
47960;SDS011;33721;48.852;9.936;2022-09-06T11:11:44;16.05;;;5.47;;
47960;SDS011;33721;48.852;9.936;2022-09-06T11:14:14;10.48;;;4.85;;
47960;SDS011;33721;48.852;9.936;2022-09-06T11:16:47;13.90;;;5.03;;
47960;SDS011;33721;48.852;9.936;2022-09-06T11:19:21;11.88;;;4.88;;
47960;SDS011;33721;48.852;9.936;2022-09-06T11:25:09;10.57;;;4.85;;
47960;SDS011;33721;48.852;9.936;2022-09-06T11:27:51;12.45;;;4.60;;
47960;SDS011;33721;48.852;9.936;2022-09-06T11:30:20;25.63;;;5.00;;
47960;SDS011;33721;48.852;9.936;2022-09-06T11:32:49;19.23;;;4.75;;
47960;SDS011;33721;48.852;9.936;2022-09-06T11:35:26;11.30;;;4.72;;
47960;SDS011;33721;48.852;9.936;2022-09-06T11:38:00;29.73;;;4.90;;
47960;SDS011;33721;48.852;9.936;2022-09-06T11:40:37;10.65;;;5.18;;
47960;SDS011;33721;48.852;9.936;2022-09-06T11:43:08;11.27;;;4.57;;
47960;SDS011;33721;48.852;9.936;2022-09-06T11:45:40;16.45;;;5.40;;
47960;SDS011;33721;48.852;9.936;2022-09-06T11:53:29;14.38;;;4.75;;
47960;SDS011;33721;48.852;9.936;2022-09-06T12:06:26;16.08;;;4.65;;
47960;SDS011;33721;48.852;9.936;2022-09-06T12:12:10;12.13;;;5.13;;
47960;SDS011;33721;48.852;9.936;2022-09-06T12:14:56;12.18;;;4.63;;
47960;SDS011;33721;48.852;9.936;2022-09-06T12:17:22;12.60;;;4.45;;
47960;SDS011;33721;48.852;9.936;2022-09-06T12:19:53;11.20;;;4.50;;
47960;SDS011;33721;48.852;9.936;2022-09-06T12:35:46;14.82;;;4.65;;
47960;SDS011;33721;48.852;9.936;2022-09-06T12:38:12;10.05;;;4.53;;
47960;SDS011;33721;48.852;9.936;2022-09-06T12:40:43;13.50;;;5.00;;
47960;SDS011;33721;48.852;9.936;2022-09-06T12:43:12;13.82;;;4.43;;
47960;SDS011;33721;48.852;9.936;2022-09-06T12:45:41;13.57;;;4.50;;
47960;SDS011;33721;48.852;9.936;2022-09-06T12:48:09;16.02;;;4.68;;
47960;SDS011;33721;48.852;9.936;2022-09-06T12:50:37;8.77;;;4.00;;
47960;SDS011;33721;48.852;9.936;2022-09-06T12:53:16;13.90;;;4.60;;
47960;SDS011;33721;48.852;9.936;2022-09-06T12:55:48;15.45;;;4.15;;
47960;SDS011;33721;48.852;9.936;2022-09-06T12:58:30;15.50;;;4.43;;
47960;SDS011;33721;48.852;9.936;2022-09-06T13:00:58;18.05;;;4.90;;
47960;SDS011;33721;48.852;9.936;2022-09-06T13:04:06;12.25;;;4.32;;
47960;SDS011;33721;48.852;9.936;2022-09-06T13:06:32;12.95;;;4.32;;
47960;SDS011;33721;48.852;9.936;2022-09-06T13:09:03;11.20;;;4.10;;
47960;SDS011;33721;48.852;9.936;2022-09-06T13:11:32;11.10;;;4.35;;
47960;SDS011;33721;48.852;9.936;2022-09-06T13:14:00;12.55;;;4.43;;
47960;SDS011;33721;48.852;9.936;2022-09-06T13:16:36;15.27;;;4.93;;
47960;SDS011;33721;48.852;9.936;2022-09-06T13:21:42;17.42;;;4.78;;
47960;SDS011;33721;48.852;9.936;2022-09-06T13:27:41;13.10;;;4.78;;
47960;SDS011;33721;48.852;9.936;2022-09-06T13:30:04;12.35;;;4.97;;
47960;SDS011;33721;48.852;9.936;2022-09-06T13:32:34;16.60;;;5.00;;
47960;SDS011;33721;48.852;9.936;2022-09-06T13:35:01;12.02;;;4.93;;
47960;SDS011;33721;48.852;9.936;2022-09-06T13:37:29;11.20;;;4.75;;
47960;SDS011;33721;48.852;9.936;2022-09-06T13:39:57;11.68;;;5.07;;
47960;SDS011;33721;48.852;9.936;2022-09-06T13:42:27;12.18;;;4.57;;
47960;SDS011;33721;48.852;9.936;2022-09-06T13:44:58;20.27;;;10.07;;
47960;SDS011;33721;48.852;9.936;2022-09-06T13:47:48;35.65;;;16.13;;
47960;SDS011;33721;48.852;9.936;2022-09-06T13:50:14;29.15;;;11.15;;
47960;SDS011;33721;48.852;9.936;2022-09-06T13:52:40;23.83;;;8.38;;
47960;SDS011;33721;48.852;9.936;2022-09-06T13:55:06;10.98;;;5.40;;
47960;SDS011;33721;48.852;9.936;2022-09-06T13:57:32;15.73;;;6.53;;
47960;SDS011;33721;48.852;9.936;2022-09-06T13:59:58;20.98;;;7.60;;
47960;SDS011;33721;48.852;9.936;2022-09-06T14:02:23;27.75;;;11.40;;
47960;SDS011;33721;48.852;9.936;2022-09-06T14:04:49;33.72;;;14.45;;
47960;SDS011;33721;48.852;9.936;2022-09-06T14:07:15;20.30;;;7.90;;
47960;SDS011;33721;48.852;9.936;2022-09-06T14:09:40;14.00;;;5.25;;
47960;SDS011;33721;48.852;9.936;2022-09-06T14:12:06;15.82;;;4.20;;
47960;SDS011;33721;48.852;9.936;2022-09-06T14:14:33;11.63;;;3.95;;
47960;SDS011;33721;48.852;9.936;2022-09-06T14:16:58;9.93;;;3.75;;
47960;SDS011;33721;48.852;9.936;2022-09-06T14:19:24;12.10;;;3.90;;
47960;SDS011;33721;48.852;9.936;2022-09-06T14:21:50;7.32;;;3.88;;
47960;SDS011;33721;48.852;9.936;2022-09-06T14:24:16;16.08;;;3.42;;
47960;SDS011;33721;48.852;9.936;2022-09-06T14:26:42;7.85;;;4.07;;
47960;SDS011;33721;48.852;9.936;2022-09-06T14:29:08;17.98;;;6.15;;
47960;SDS011;33721;48.852;9.936;2022-09-06T14:31:33;20.50;;;5.65;;
47960;SDS011;33721;48.852;9.936;2022-09-06T14:33:59;12.35;;;5.53;;
47960;SDS011;33721;48.852;9.936;2022-09-06T14:36:26;12.40;;;5.63;;
47960;SDS011;33721;48.852;9.936;2022-09-06T14:38:54;13.85;;;5.30;;
47960;SDS011;33721;48.852;9.936;2022-09-06T14:41:21;12.38;;;4.78;;
47960;SDS011;33721;48.852;9.936;2022-09-06T14:43:51;14.80;;;5.00;;
47960;SDS011;33721;48.852;9.936;2022-09-06T14:46:18;16.60;;;6.53;;
47960;SDS011;33721;48.852;9.936;2022-09-06T14:48:45;19.95;;;9.63;;
47960;SDS011;33721;48.852;9.936;2022-09-06T14:51:18;17.35;;;7.40;;
47960;SDS011;33721;48.852;9.936;2022-09-06T14:53:47;16.42;;;6.50;;
47960;SDS011;33721;48.852;9.936;2022-09-06T14:56:14;18.50;;;6.80;;
47960;SDS011;33721;48.852;9.936;2022-09-06T14:58:40;15.23;;;6.53;;
47960;SDS011;33721;48.852;9.936;2022-09-06T15:01:40;18.77;;;7.05;;
47960;SDS011;33721;48.852;9.936;2022-09-06T15:04:00;23.67;;;8.82;;
47960;SDS011;33721;48.852;9.936;2022-09-06T15:06:28;17.92;;;8.88;;
47960;SDS011;33721;48.852;9.936;2022-09-06T15:08:55;14.43;;;8.05;;
47960;SDS011;33721;48.852;9.936;2022-09-06T15:11:32;18.38;;;7.68;;
47960;SDS011;33721;48.852;9.936;2022-09-06T15:14:00;13.43;;;6.40;;
47960;SDS011;33721;48.852;9.936;2022-09-06T15:16:49;12.85;;;6.38;;
47960;SDS011;33721;48.852;9.936;2022-09-06T15:19:17;18.10;;;5.47;;
47960;SDS011;33721;48.852;9.936;2022-09-06T15:21:43;12.30;;;4.57;;
47960;SDS011;33721;48.852;9.936;2022-09-06T15:24:11;11.63;;;4.57;;
47960;SDS011;33721;48.852;9.936;2022-09-06T15:26:37;14.25;;;4.40;;
47960;SDS011;33721;48.852;9.936;2022-09-06T15:29:03;8.95;;;4.40;;
47960;SDS011;33721;48.852;9.936;2022-09-06T15:31:30;10.18;;;4.30;;
47960;SDS011;33721;48.852;9.936;2022-09-06T15:33:58;13.30;;;4.10;;
47960;SDS011;33721;48.852;9.936;2022-09-06T15:36:25;17.52;;;4.60;;
47960;SDS011;33721;48.852;9.936;2022-09-06T15:38:51;10.77;;;4.57;;
47960;SDS011;33721;48.852;9.936;2022-09-06T15:41:28;9.80;;;4.63;;
47960;SDS011;33721;48.852;9.936;2022-09-06T15:43:57;13.68;;;4.40;;
47960;SDS011;33721;48.852;9.936;2022-09-06T15:46:43;9.15;;;3.75;;
47960;SDS011;33721;48.852;9.936;2022-09-06T15:49:12;9.05;;;3.97;;
47960;SDS011;33721;48.852;9.936;2022-09-06T15:51:40;10.13;;;4.38;;
47960;SDS011;33721;48.852;9.936;2022-09-06T15:54:07;11.27;;;4.35;;
47960;SDS011;33721;48.852;9.936;2022-09-06T15:56:34;9.88;;;4.18;;
47960;SDS011;33721;48.852;9.936;2022-09-06T15:59:00;7.55;;;3.75;;
47960;SDS011;33721;48.852;9.936;2022-09-06T16:01:26;8.73;;;3.60;;
47960;SDS011;33721;48.852;9.936;2022-09-06T16:03:53;9.10;;;3.95;;
47960;SDS011;33721;48.852;9.936;2022-09-06T16:06:27;9.82;;;4.10;;
47960;SDS011;33721;48.852;9.936;2022-09-06T16:08:59;5.53;;;3.47;;
47960;SDS011;33721;48.852;9.936;2022-09-06T16:11:30;5.57;;;3.47;;
47960;SDS011;33721;48.852;9.936;2022-09-06T16:13:56;12.15;;;4.15;;
47960;SDS011;33721;48.852;9.936;2022-09-06T16:16:22;12.95;;;4.32;;
47960;SDS011;33721;48.852;9.936;2022-09-06T16:18:48;13.85;;;4.38;;
47960;SDS011;33721;48.852;9.936;2022-09-06T16:21:22;8.13;;;4.28;;
47960;SDS011;33721;48.852;9.936;2022-09-06T16:23:55;8.63;;;4.05;;
47960;SDS011;33721;48.852;9.936;2022-09-06T16:26:22;8.20;;;4.18;;
47960;SDS011;33721;48.852;9.936;2022-09-06T16:28:50;9.27;;;4.40;;
47960;SDS011;33721;48.852;9.936;2022-09-06T16:31:17;9.63;;;4.40;;
47960;SDS011;33721;48.852;9.936;2022-09-06T16:33:44;7.10;;;4.07;;
47960;SDS011;33721;48.852;9.936;2022-09-06T16:36:12;12.68;;;4.80;;
47960;SDS011;33721;48.852;9.936;2022-09-06T16:38:39;7.85;;;4.32;;
47960;SDS011;33721;48.852;9.936;2022-09-06T16:41:21;11.68;;;4.35;;
47960;SDS011;33721;48.852;9.936;2022-09-06T16:43:55;11.45;;;4.57;;
47960;SDS011;33721;48.852;9.936;2022-09-06T16:46:22;13.63;;;4.80;;
47960;SDS011;33721;48.852;9.936;2022-09-06T16:48:49;11.50;;;4.53;;
47960;SDS011;33721;48.852;9.936;2022-09-06T16:51:17;8.35;;;4.20;;
47960;SDS011;33721;48.852;9.936;2022-09-06T16:53:45;8.80;;;4.20;;
47960;SDS011;33721;48.852;9.936;2022-09-06T16:56:12;8.32;;;4.50;;
47960;SDS011;33721;48.852;9.936;2022-09-06T16:58:39;32.63;;;8.00;;